sensor_id;sensor_type;location;lat;lon;timestamp;pressure;altitude;pressure_sealevel;temperature;humidity
80118;BME280;69424;48.770;-1.564;2023-04-23T00:01:03;100537.30;;;11.15;83.45
80118;BME280;69424;48.770;-1.564;2023-04-23T00:03:37;100534.45;;;11.11;83.84
80118;BME280;69424;48.770;-1.564;2023-04-23T00:06:10;100525.23;;;11.05;83.98
80118;BME280;69424;48.770;-1.564;2023-04-23T00:08:40;100523.80;;;11.03;84.14
80118;BME280;69424;48.770;-1.564;2023-04-23T00:11:09;100520.27;;;11.04;84.02
80118;BME280;69424;48.770;-1.564;2023-04-23T00:13:37;100520.62;;;11.03;83.91
80118;BME280;69424;48.770;-1.564;2023-04-23T00:16:06;100517.62;;;11.06;83.87
80118;BME280;69424;48.770;-1.564;2023-04-23T00:18:35;100518.52;;;11.06;84.05
80118;BME280;69424;48.770;-1.564;2023-04-23T00:21:03;100515.50;;;11.06;83.83
80118;BME280;69424;48.770;-1.564;2023-04-23T00:23:32;100517.09;;;11.06;84.09
80118;BME280;69424;48.770;-1.564;2023-04-23T00:26:00;100517.45;;;11.06;84.23
80118;BME280;69424;48.770;-1.564;2023-04-23T00:28:28;100517.98;;;11.07;84.20
80118;BME280;69424;48.770;-1.564;2023-04-23T00:30:56;100510.55;;;11.05;84.48
80118;BME280;69424;48.770;-1.564;2023-04-23T00:33:24;100507.88;;;11.04;84.64
80118;BME280;69424;48.770;-1.564;2023-04-23T00:35:53;100508.94;;;11.04;84.81
80118;BME280;69424;48.770;-1.564;2023-04-23T00:38:21;100502.59;;;11.04;84.91
80118;BME280;69424;48.770;-1.564;2023-04-23T00:40:49;100507.17;;;11.05;84.74
80118;BME280;69424;48.770;-1.564;2023-04-23T00:43:17;100499.59;;;11.08;84.80
80118;BME280;69424;48.770;-1.564;2023-04-23T00:45:46;100501.35;;;11.11;84.90
80118;BME280;69424;48.770;-1.564;2023-04-23T00:48:15;100496.40;;;11.12;85.09
80118;BME280;69424;48.770;-1.564;2023-04-23T00:50:43;100489.50;;;11.12;85.26
80118;BME280;69424;48.770;-1.564;2023-04-23T00:53:12;100487.20;;;11.13;85.02
80118;BME280;69424;48.770;-1.564;2023-04-23T00:55:40;100490.93;;;11.16;84.90
80118;BME280;69424;48.770;-1.564;2023-04-23T00:58:08;100484.56;;;11.20;84.89
80118;BME280;69424;48.770;-1.564;2023-04-23T01:00:43;100481.92;;;11.23;85.04
80118;BME280;69424;48.770;-1.564;2023-04-23T01:03:14;100474.66;;;11.23;84.77
80118;BME280;69424;48.770;-1.564;2023-04-23T01:05:46;100471.83;;;11.20;84.70
80118;BME280;69424;48.770;-1.564;2023-04-23T01:08:17;100469.52;;;11.16;84.82
80118;BME280;69424;48.770;-1.564;2023-04-23T01:10:46;100467.73;;;11.14;84.74
80118;BME280;69424;48.770;-1.564;2023-04-23T01:13:14;100464.56;;;11.16;84.60
80118;BME280;69424;48.770;-1.564;2023-04-23T01:15:43;100465.82;;;11.19;84.66
80118;BME280;69424;48.770;-1.564;2023-04-23T01:18:13;100458.89;;;11.21;85.00
80118;BME280;69424;48.770;-1.564;2023-04-23T01:20:41;100454.30;;;11.22;85.16
80118;BME280;69424;48.770;-1.564;2023-04-23T01:23:10;100455.19;;;11.22;84.99
80118;BME280;69424;48.770;-1.564;2023-04-23T01:25:39;100456.42;;;11.25;85.12
80118;BME280;69424;48.770;-1.564;2023-04-23T01:28:07;100454.30;;;11.28;85.03
80118;BME280;69424;48.770;-1.564;2023-04-23T01:30:36;100444.05;;;11.32;85.21
80118;BME280;69424;48.770;-1.564;2023-04-23T01:33:05;100434.50;;;11.34;85.00
80118;BME280;69424;48.770;-1.564;2023-04-23T01:35:35;100435.39;;;11.36;84.81
80118;BME280;69424;48.770;-1.564;2023-04-23T01:38:04;100433.45;;;11.38;84.89
80118;BME280;69424;48.770;-1.564;2023-04-23T01:40:34;100432.20;;;11.40;84.74
80118;BME280;69424;48.770;-1.564;2023-04-23T01:43:04;100432.38;;;11.41;84.95
80118;BME280;69424;48.770;-1.564;2023-04-23T01:45:32;100427.42;;;11.41;84.79
80118;BME280;69424;48.770;-1.564;2023-04-23T01:48:00;100418.03;;;11.42;84.52
80118;BME280;69424;48.770;-1.564;2023-04-23T01:50:29;100413.24;;;11.45;84.57
80118;BME280;69424;48.770;-1.564;2023-04-23T01:52:57;100413.25;;;11.49;84.35
80118;BME280;69424;48.770;-1.564;2023-04-23T01:55:25;100414.50;;;11.52;84.14
80118;BME280;69424;48.770;-1.564;2023-04-23T01:57:54;100409.52;;;11.54;84.21
80118;BME280;69424;48.770;-1.564;2023-04-23T02:00:22;100405.27;;;11.54;84.25
80118;BME280;69424;48.770;-1.564;2023-04-23T02:02:50;100404.59;;;11.51;84.15
80118;BME280;69424;48.770;-1.564;2023-04-23T02:05:20;100392.89;;;11.48;84.38
80118;BME280;69424;48.770;-1.564;2023-04-23T02:07:50;100394.14;;;11.47;84.38
80118;BME280;69424;48.770;-1.564;2023-04-23T02:10:18;100393.08;;;11.48;84.16
80118;BME280;69424;48.770;-1.564;2023-04-23T02:12:47;100394.67;;;11.48;84.28
80118;BME280;69424;48.770;-1.564;2023-04-23T02:15:16;100384.40;;;11.49;84.39
80118;BME280;69424;48.770;-1.564;2023-04-23T02:17:44;100376.23;;;11.50;84.45
80118;BME280;69424;48.770;-1.564;2023-04-23T02:20:13;100379.61;;;11.53;84.31
80118;BME280;69424;48.770;-1.564;2023-04-23T02:22:41;100376.06;;;11.54;84.16
80118;BME280;69424;48.770;-1.564;2023-04-23T02:25:10;100372.17;;;11.54;84.26
80118;BME280;69424;48.770;-1.564;2023-04-23T02:27:38;100364.73;;;11.56;84.03
80118;BME280;69424;48.770;-1.564;2023-04-23T02:30:07;100367.20;;;11.58;84.02
80118;BME280;69424;48.770;-1.564;2023-04-23T02:32:37;100367.02;;;11.59;84.07
80118;BME280;69424;48.770;-1.564;2023-04-23T02:35:06;100360.29;;;11.61;84.10
80118;BME280;69424;48.770;-1.564;2023-04-23T02:37:36;100360.65;;;11.64;83.58
80118;BME280;69424;48.770;-1.564;2023-04-23T02:40:04;100354.63;;;11.66;83.80
80118;BME280;69424;48.770;-1.564;2023-04-23T02:42:33;100347.17;;;11.69;83.50
80118;BME280;69424;48.770;-1.564;2023-04-23T02:45:02;100343.63;;;11.71;83.40
80118;BME280;69424;48.770;-1.564;2023-04-23T02:47:30;100334.23;;;11.73;83.30
80118;BME280;69424;48.770;-1.564;2023-04-23T02:49:58;100330.88;;;11.73;83.13
80118;BME280;69424;48.770;-1.564;2023-04-23T02:52:30;100322.73;;;11.68;83.15
80118;BME280;69424;48.770;-1.564;2023-04-23T02:54:59;100325.05;;;11.63;83.25
80118;BME280;69424;48.770;-1.564;2023-04-23T02:57:28;100323.28;;;11.61;83.62
80118;BME280;69424;48.770;-1.564;2023-04-23T02:59:56;100320.97;;;11.61;83.57
80118;BME280;69424;48.770;-1.564;2023-04-23T03:02:29;100319.38;;;11.59;83.83
80118;BME280;69424;48.770;-1.564;2023-04-23T03:04:58;100316.91;;;11.58;83.78
80118;BME280;69424;48.770;-1.564;2023-04-23T03:07:26;100315.30;;;11.60;83.74
80118;BME280;69424;48.770;-1.564;2023-04-23T03:09:54;100310.17;;;11.60;83.77
80118;BME280;69424;48.770;-1.564;2023-04-23T03:12:23;100307.69;;;11.60;83.97
80118;BME280;69424;48.770;-1.564;2023-04-23T03:14:51;100303.98;;;11.59;83.96
80118;BME280;69424;48.770;-1.564;2023-04-23T03:17:20;100300.08;;;11.62;84.01
80118;BME280;69424;48.770;-1.564;2023-04-23T03:19:48;100301.14;;;11.65;84.11
80118;BME280;69424;48.770;-1.564;2023-04-23T03:22:17;100295.83;;;11.64;83.92
80118;BME280;69424;48.770;-1.564;2023-04-23T03:24:45;100292.64;;;11.61;84.23
80118;BME280;69424;48.770;-1.564;2023-04-23T03:27:14;100286.97;;;11.61;84.09
80118;BME280;69424;48.770;-1.564;2023-04-23T03:29:42;100285.02;;;11.60;84.67
80118;BME280;69424;48.770;-1.564;2023-04-23T03:32:10;100288.74;;;11.58;85.18
80118;BME280;69424;48.770;-1.564;2023-04-23T03:34:39;100289.27;;;11.58;85.31
80118;BME280;69424;48.770;-1.564;2023-04-23T03:37:07;100288.42;;;11.54;85.40
80118;BME280;69424;48.770;-1.564;2023-04-23T03:39:36;100290.89;;;11.53;85.63
80118;BME280;69424;48.770;-1.564;2023-04-23T03:42:05;100297.45;;;11.51;85.79
80118;BME280;69424;48.770;-1.564;2023-04-23T03:44:33;100292.48;;;11.49;85.43
80118;BME280;69424;48.770;-1.564;2023-04-23T03:47:01;100291.09;;;11.48;84.99
80118;BME280;69424;48.770;-1.564;2023-04-23T03:49:31;100297.64;;;11.46;84.86
80118;BME280;69424;48.770;-1.564;2023-04-23T03:51:59;100300.11;;;11.45;85.05
80118;BME280;69424;48.770;-1.564;2023-04-23T03:54:28;100298.69;;;11.42;85.23
80118;BME280;69424;48.770;-1.564;2023-04-23T03:57:08;100303.30;;;11.41;85.29
80118;BME280;69424;48.770;-1.564;2023-04-23T03:59:39;100298.17;;;11.39;85.34
80118;BME280;69424;48.770;-1.564;2023-04-23T04:02:08;100301.19;;;11.38;85.06
80118;BME280;69424;48.770;-1.564;2023-04-23T04:04:36;100299.59;;;11.37;85.07
80118;BME280;69424;48.770;-1.564;2023-04-23T04:07:04;100299.23;;;11.35;84.95
80118;BME280;69424;48.770;-1.564;2023-04-23T04:09:34;100302.95;;;11.32;84.92
80118;BME280;69424;48.770;-1.564;2023-04-23T04:12:03;100298.54;;;11.28;85.06
80118;BME280;69424;48.770;-1.564;2023-04-23T04:14:31;100292.35;;;11.26;85.16
80118;BME280;69424;48.770;-1.564;2023-04-23T04:17:00;100291.29;;;11.23;85.20
80118;BME280;69424;48.770;-1.564;2023-04-23T04:19:28;100292.16;;;11.22;85.35
80118;BME280;69424;48.770;-1.564;2023-04-23T04:21:56;100285.63;;;11.25;85.13
80118;BME280;69424;48.770;-1.564;2023-04-23T04:24:24;100279.25;;;11.27;85.07
80118;BME280;69424;48.770;-1.564;2023-04-23T04:26:53;100277.13;;;11.28;85.02
80118;BME280;69424;48.770;-1.564;2023-04-23T04:29:22;100270.92;;;11.29;84.86
80118;BME280;69424;48.770;-1.564;2023-04-23T04:31:51;100268.62;;;11.30;84.77
80118;BME280;69424;48.770;-1.564;2023-04-23T04:34:20;100263.48;;;11.29;84.55
80118;BME280;69424;48.770;-1.564;2023-04-23T04:36:48;100254.45;;;11.28;84.28
80118;BME280;69424;48.770;-1.564;2023-04-23T04:39:16;100254.45;;;11.26;83.99
80118;BME280;69424;48.770;-1.564;2023-04-23T04:41:45;100250.91;;;11.22;84.18
80118;BME280;69424;48.770;-1.564;2023-04-23T04:44:13;100250.05;;;11.17;83.95
80118;BME280;69424;48.770;-1.564;2023-04-23T04:46:43;100247.94;;;11.11;84.03
80118;BME280;69424;48.770;-1.564;2023-04-23T04:49:11;100241.05;;;11.07;83.96
80118;BME280;69424;48.770;-1.564;2023-04-23T04:51:40;100245.46;;;11.05;84.05
80118;BME280;69424;48.770;-1.564;2023-04-23T04:54:08;100242.45;;;11.04;83.94
80118;BME280;69424;48.770;-1.564;2023-04-23T04:56:36;100236.08;;;11.06;84.07
80118;BME280;69424;48.770;-1.564;2023-04-23T04:59:04;100235.38;;;11.07;83.94
80118;BME280;69424;48.770;-1.564;2023-04-23T05:01:33;100236.61;;;11.11;83.88
80118;BME280;69424;48.770;-1.564;2023-04-23T05:04:01;100232.54;;;11.12;83.65
80118;BME280;69424;48.770;-1.564;2023-04-23T05:06:29;100232.02;;;11.11;83.58
80118;BME280;69424;48.770;-1.564;2023-04-23T05:08:59;100230.61;;;11.10;83.55
80118;BME280;69424;48.770;-1.564;2023-04-23T05:11:27;100230.07;;;11.09;83.65
80118;BME280;69424;48.770;-1.564;2023-04-23T05:13:55;100229.89;;;11.04;83.61
80118;BME280;69424;48.770;-1.564;2023-04-23T05:16:23;100232.73;;;10.98;83.89
80118;BME280;69424;48.770;-1.564;2023-04-23T05:18:52;100227.77;;;10.95;83.93
80118;BME280;69424;48.770;-1.564;2023-04-23T05:21:20;100222.47;;;10.96;83.89
80118;BME280;69424;48.770;-1.564;2023-04-23T05:23:48;100222.11;;;10.99;83.87
80118;BME280;69424;48.770;-1.564;2023-04-23T05:26:16;100216.45;;;11.03;83.97
80118;BME280;69424;48.770;-1.564;2023-04-23T05:28:45;100213.08;;;11.05;83.80
80118;BME280;69424;48.770;-1.564;2023-04-23T05:31:13;100211.50;;;11.08;83.78
80118;BME280;69424;48.770;-1.564;2023-04-23T05:33:41;100211.12;;;11.13;83.72
80118;BME280;69424;48.770;-1.564;2023-04-23T05:36:17;100218.02;;;11.17;83.48
80118;BME280;69424;48.770;-1.564;2023-04-23T05:38:46;100211.83;;;11.19;83.35
80118;BME280;69424;48.770;-1.564;2023-04-23T05:41:14;100197.85;;;11.18;83.38
80118;BME280;69424;48.770;-1.564;2023-04-23T05:43:43;100180.32;;;11.20;83.41
80118;BME280;69424;48.770;-1.564;2023-04-23T05:46:11;100163.85;;;11.23;83.33
80118;BME280;69424;48.770;-1.564;2023-04-23T05:48:39;100154.46;;;11.26;83.24
80118;BME280;69424;48.770;-1.564;2023-04-23T05:51:08;100159.04;;;11.30;82.99
80118;BME280;69424;48.770;-1.564;2023-04-23T05:53:36;100158.67;;;11.33;83.02
80118;BME280;69424;48.770;-1.564;2023-04-23T05:56:04;100155.14;;;11.36;82.87
80118;BME280;69424;48.770;-1.564;2023-04-23T05:58:32;100147.66;;;11.42;82.69
80118;BME280;69424;48.770;-1.564;2023-04-23T06:01:00;100145.53;;;11.47;82.41
80118;BME280;69424;48.770;-1.564;2023-04-23T06:03:28;100131.02;;;11.47;82.32
80118;BME280;69424;48.770;-1.564;2023-04-23T06:05:57;100111.70;;;11.48;82.14
80118;BME280;69424;48.770;-1.564;2023-04-23T06:08:25;100102.52;;;11.45;82.11
80118;BME280;69424;48.770;-1.564;2023-04-23T06:10:53;100095.80;;;11.43;82.10
80118;BME280;69424;48.770;-1.564;2023-04-23T06:13:22;100089.42;;;11.44;82.05
80118;BME280;69424;48.770;-1.564;2023-04-23T06:15:51;100079.66;;;11.46;82.09
80118;BME280;69424;48.770;-1.564;2023-04-23T06:18:19;100076.69;;;11.41;81.96
80118;BME280;69424;48.770;-1.564;2023-04-23T06:20:47;100071.58;;;11.36;82.32
80118;BME280;69424;48.770;-1.564;2023-04-23T06:23:15;100068.22;;;11.34;82.28
80118;BME280;69424;48.770;-1.564;2023-04-23T06:25:44;100067.36;;;11.30;82.24
80118;BME280;69424;48.770;-1.564;2023-04-23T06:28:12;100064.35;;;11.28;82.27
80118;BME280;69424;48.770;-1.564;2023-04-23T06:31:03;100058.17;;;11.28;82.58
80118;BME280;69424;48.770;-1.564;2023-04-23T06:33:33;100050.76;;;11.23;82.62
80118;BME280;69424;48.770;-1.564;2023-04-23T06:36:01;100044.95;;;11.16;82.78
80118;BME280;69424;48.770;-1.564;2023-04-23T06:38:30;100043.73;;;11.09;82.97
80118;BME280;69424;48.770;-1.564;2023-04-23T06:40:58;100042.34;;;11.05;83.06
80118;BME280;69424;48.770;-1.564;2023-04-23T06:43:26;100040.04;;;11.02;83.39
80118;BME280;69424;48.770;-1.564;2023-04-23T06:46:13;100036.71;;;10.97;83.43
80118;BME280;69424;48.770;-1.564;2023-04-23T06:48:42;100035.83;;;10.94;83.25
80118;BME280;69424;48.770;-1.564;2023-04-23T06:51:10;100032.30;;;10.93;83.50
80118;BME280;69424;48.770;-1.564;2023-04-23T06:53:38;100032.13;;;10.90;83.38
80118;BME280;69424;48.770;-1.564;2023-04-23T06:56:07;100026.13;;;10.90;83.44
80118;BME280;69424;48.770;-1.564;2023-04-23T06:58:35;100030.54;;;10.88;83.59
80118;BME280;69424;48.770;-1.564;2023-04-23T07:01:11;100029.49;;;10.86;83.03
80118;BME280;69424;48.770;-1.564;2023-04-23T07:03:39;100034.63;;;10.86;82.95
80118;BME280;69424;48.770;-1.564;2023-04-23T07:06:12;100031.79;;;10.87;83.01
80118;BME280;69424;48.770;-1.564;2023-04-23T07:08:40;100031.27;;;10.88;83.01
80118;BME280;69424;48.770;-1.564;2023-04-23T07:11:08;100029.48;;;10.85;82.95
80118;BME280;69424;48.770;-1.564;2023-04-23T07:13:38;100027.04;;;10.80;83.13
80118;BME280;69424;48.770;-1.564;2023-04-23T07:16:06;100023.69;;;10.77;83.26
80118;BME280;69424;48.770;-1.564;2023-04-23T07:18:34;100019.61;;;10.76;83.59
80118;BME280;69424;48.770;-1.564;2023-04-23T07:21:03;100017.32;;;10.76;83.79
80118;BME280;69424;48.770;-1.564;2023-04-23T07:23:31;100013.96;;;10.74;83.81
80118;BME280;69424;48.770;-1.564;2023-04-23T07:25:59;100013.61;;;10.74;83.92
80118;BME280;69424;48.770;-1.564;2023-04-23T07:28:27;100015.02;;;10.74;83.62
80118;BME280;69424;48.770;-1.564;2023-04-23T07:30:55;100024.23;;;10.71;83.67
80118;BME280;69424;48.770;-1.564;2023-04-23T07:33:23;100027.61;;;10.69;83.70
80118;BME280;69424;48.770;-1.564;2023-04-23T07:35:52;100025.11;;;10.72;83.90
80118;BME280;69424;48.770;-1.564;2023-04-23T07:38:20;100029.70;;;10.73;83.14
80118;BME280;69424;48.770;-1.564;2023-04-23T07:40:48;100035.71;;;10.72;83.24
80118;BME280;69424;48.770;-1.564;2023-04-23T07:43:16;100041.21;;;10.71;83.46
80118;BME280;69424;48.770;-1.564;2023-04-23T07:45:44;100046.34;;;10.67;83.55
80118;BME280;69424;48.770;-1.564;2023-04-23T07:48:13;100044.07;;;10.57;82.92
80118;BME280;69424;48.770;-1.564;2023-04-23T07:50:41;100044.09;;;10.45;82.52
80118;BME280;69424;48.770;-1.564;2023-04-23T07:53:09;100042.88;;;10.35;82.42
80118;BME280;69424;48.770;-1.564;2023-04-23T07:55:37;100049.05;;;10.31;82.48
80118;BME280;69424;48.770;-1.564;2023-04-23T07:58:05;100049.02;;;10.29;82.82
80118;BME280;69424;48.770;-1.564;2023-04-23T08:00:34;100046.91;;;10.27;82.43
80118;BME280;69424;48.770;-1.564;2023-04-23T08:03:03;100045.86;;;10.23;82.62
80118;BME280;69424;48.770;-1.564;2023-04-23T08:05:31;100043.73;;;10.22;82.80
80118;BME280;69424;48.770;-1.564;2023-04-23T08:07:59;100040.91;;;10.22;82.71
80118;BME280;69424;48.770;-1.564;2023-04-23T08:10:27;100043.38;;;10.21;82.86
80118;BME280;69424;48.770;-1.564;2023-04-23T08:12:56;100047.11;;;10.19;82.24
80118;BME280;69424;48.770;-1.564;2023-04-23T08:15:24;100048.16;;;10.19;82.48
80118;BME280;69424;48.770;-1.564;2023-04-23T08:17:52;100049.05;;;10.17;82.86
80118;BME280;69424;48.770;-1.564;2023-04-23T08:20:20;100050.10;;;10.14;83.40
80118;BME280;69424;48.770;-1.564;2023-04-23T08:22:49;100051.52;;;10.12;83.85
80118;BME280;69424;48.770;-1.564;2023-04-23T08:25:18;100048.16;;;10.10;83.65
80118;BME280;69424;48.770;-1.564;2023-04-23T08:27:48;100052.93;;;10.10;83.13
80118;BME280;69424;48.770;-1.564;2023-04-23T08:30:16;100056.46;;;10.09;82.67
80118;BME280;69424;48.770;-1.564;2023-04-23T08:32:48;100058.94;;;10.09;82.19
80118;BME280;69424;48.770;-1.564;2023-04-23T08:35:17;100059.45;;;10.09;82.16
80118;BME280;69424;48.770;-1.564;2023-04-23T08:37:45;100062.11;;;10.11;82.41
80118;BME280;69424;48.770;-1.564;2023-04-23T08:40:13;100059.64;;;10.13;82.21
80118;BME280;69424;48.770;-1.564;2023-04-23T08:42:42;100062.45;;;10.15;82.34
80118;BME280;69424;48.770;-1.564;2023-04-23T08:45:12;100064.77;;;10.16;82.31
80118;BME280;69424;48.770;-1.564;2023-04-23T08:47:41;100066.71;;;10.15;83.19
80118;BME280;69424;48.770;-1.564;2023-04-23T08:50:11;100073.79;;;10.14;83.47
80118;BME280;69424;48.770;-1.564;2023-04-23T08:52:41;100077.13;;;10.16;83.20
80118;BME280;69424;48.770;-1.564;2023-04-23T08:55:12;100080.48;;;10.20;83.31
80118;BME280;69424;48.770;-1.564;2023-04-23T08:57:42;100086.33;;;10.23;83.19
80118;BME280;69424;48.770;-1.564;2023-04-23T09:00:14;100092.88;;;10.32;83.39
80118;BME280;69424;48.770;-1.564;2023-04-23T09:02:46;100093.77;;;10.44;83.43
80118;BME280;69424;48.770;-1.564;2023-04-23T09:05:15;100101.35;;;10.57;82.96
80118;BME280;69424;48.770;-1.564;2023-04-23T09:07:44;100106.65;;;10.65;82.41
80118;BME280;69424;48.770;-1.564;2023-04-23T09:10:13;100109.11;;;10.72;81.65
80118;BME280;69424;48.770;-1.564;2023-04-23T09:12:45;100113.70;;;10.75;81.71
80118;BME280;69424;48.770;-1.564;2023-04-23T09:15:15;100119.73;;;10.78;82.14
80118;BME280;69424;48.770;-1.564;2023-04-23T09:17:45;100124.50;;;10.79;82.26
80118;BME280;69424;48.770;-1.564;2023-04-23T09:20:14;100127.48;;;10.83;82.47
80118;BME280;69424;48.770;-1.564;2023-04-23T09:22:47;100138.98;;;10.89;82.55
80118;BME280;69424;48.770;-1.564;2023-04-23T09:25:18;100139.31;;;10.98;82.35
80118;BME280;69424;48.770;-1.564;2023-04-23T09:27:48;100140.00;;;11.08;81.71
80118;BME280;69424;48.770;-1.564;2023-04-23T09:30:17;100141.02;;;11.14;81.71
80118;BME280;69424;48.770;-1.564;2023-04-23T09:32:46;100139.80;;;11.19;80.77
80118;BME280;69424;48.770;-1.564;2023-04-23T09:35:16;100145.09;;;11.21;80.94
80118;BME280;69424;48.770;-1.564;2023-04-23T09:37:49;100151.09;;;11.27;80.50
80118;BME280;69424;48.770;-1.564;2023-04-23T09:40:22;100157.80;;;11.35;80.70
80118;BME280;69424;48.770;-1.564;2023-04-23T09:42:51;100162.88;;;11.48;80.90
80118;BME280;69424;48.770;-1.564;2023-04-23T09:45:22;100161.95;;;11.61;79.62
80118;BME280;69424;48.770;-1.564;2023-04-23T09:47:54;100156.91;;;11.72;79.99
80118;BME280;69424;48.770;-1.564;2023-04-23T09:50:37;100159.16;;;11.86;80.24
80118;BME280;69424;48.770;-1.564;2023-04-23T09:53:07;100158.75;;;12.00;79.88
80118;BME280;69424;48.770;-1.564;2023-04-23T09:55:37;100160.96;;;12.15;79.00
80118;BME280;69424;48.770;-1.564;2023-04-23T09:58:11;100167.80;;;12.24;78.37
80118;BME280;69424;48.770;-1.564;2023-04-23T10:00:40;100167.59;;;12.32;78.05
80118;BME280;69424;48.770;-1.564;2023-04-23T10:03:09;100171.63;;;12.37;76.98
80118;BME280;69424;48.770;-1.564;2023-04-23T10:05:40;100175.68;;;12.39;76.61
80118;BME280;69424;48.770;-1.564;2023-04-23T10:08:13;100181.50;;;12.43;75.95
80118;BME280;69424;48.770;-1.564;2023-04-23T10:10:44;100189.83;;;12.44;75.88
80118;BME280;69424;48.770;-1.564;2023-04-23T10:13:34;100188.56;;;12.48;75.87
80118;BME280;69424;48.770;-1.564;2023-04-23T10:16:03;100188.16;;;12.53;76.67
80118;BME280;69424;48.770;-1.564;2023-04-23T10:18:50;100192.68;;;12.65;76.74
80118;BME280;69424;48.770;-1.564;2023-04-23T10:21:19;100195.45;;;12.75;75.96
80118;BME280;69424;48.770;-1.564;2023-04-23T10:23:50;100198.78;;;12.79;76.03
80118;BME280;69424;48.770;-1.564;2023-04-23T10:26:19;100199.97;;;12.84;76.07
80118;BME280;69424;48.770;-1.564;2023-04-23T10:28:49;100205.24;;;12.91;76.63
80118;BME280;69424;48.770;-1.564;2023-04-23T10:31:18;100207.67;;;12.95;76.12
80118;BME280;69424;48.770;-1.564;2023-04-23T10:33:47;100209.95;;;12.98;76.20
80118;BME280;69424;48.770;-1.564;2023-04-23T10:36:22;100212.20;;;13.04;76.10
80118;BME280;69424;48.770;-1.564;2023-04-23T10:38:52;100211.21;;;13.16;75.94
80118;BME280;69424;48.770;-1.564;2023-04-23T10:41:32;100214.08;;;13.34;75.60
80118;BME280;69424;48.770;-1.564;2023-04-23T10:44:03;100219.59;;;13.50;75.27
80118;BME280;69424;48.770;-1.564;2023-04-23T10:46:33;100221.98;;;13.58;74.31
80118;BME280;69424;48.770;-1.564;2023-04-23T10:51:35;100223.17;;;13.78;72.86
80118;BME280;69424;48.770;-1.564;2023-04-23T10:54:07;100223.45;;;13.84;72.46
80118;BME280;69424;48.770;-1.564;2023-04-23T10:56:38;100232.67;;;13.99;72.77
80118;BME280;69424;48.770;-1.564;2023-04-23T10:59:16;100232.50;;;14.12;72.62
80118;BME280;69424;48.770;-1.564;2023-04-23T11:01:51;100236.77;;;14.25;72.16
80118;BME280;69424;48.770;-1.564;2023-04-23T11:04:24;100233.95;;;14.35;71.85
80118;BME280;69424;48.770;-1.564;2023-04-23T11:09:30;100249.78;;;14.36;72.18
80118;BME280;69424;48.770;-1.564;2023-04-23T11:11:59;100251.71;;;14.24;71.85
80118;BME280;69424;48.770;-1.564;2023-04-23T11:14:45;100253.98;;;14.15;72.66
80118;BME280;69424;48.770;-1.564;2023-04-23T11:17:16;100251.06;;;14.20;72.19
80118;BME280;69424;48.770;-1.564;2023-04-23T11:22:37;100256.27;;;14.42;70.48
80118;BME280;69424;48.770;-1.564;2023-04-23T11:25:11;100265.16;;;14.54;69.93
80118;BME280;69424;48.770;-1.564;2023-04-23T11:27:45;100268.69;;;14.56;69.83
80118;BME280;69424;48.770;-1.564;2023-04-23T11:30:15;100277.52;;;14.62;69.71
80118;BME280;69424;48.770;-1.564;2023-04-23T11:32:45;100285.55;;;14.73;69.25
80118;BME280;69424;48.770;-1.564;2023-04-23T11:35:20;100294.40;;;14.77;69.02
80118;BME280;69424;48.770;-1.564;2023-04-23T11:37:49;100299.48;;;14.83;69.30
80118;BME280;69424;48.770;-1.564;2023-04-23T11:40:18;100304.57;;;14.87;68.48
80118;BME280;69424;48.770;-1.564;2023-04-23T11:42:52;100303.63;;;14.91;68.11
80118;BME280;69424;48.770;-1.564;2023-04-23T11:45:25;100306.27;;;14.93;68.36
80118;BME280;69424;48.770;-1.564;2023-04-23T11:47:55;100310.39;;;14.91;68.45
80118;BME280;69424;48.770;-1.564;2023-04-23T11:50:31;100311.95;;;14.82;67.96
80118;BME280;69424;48.770;-1.564;2023-04-23T11:53:04;100311.94;;;14.71;67.69
80118;BME280;69424;48.770;-1.564;2023-04-23T11:55:34;100307.53;;;14.68;68.26
80118;BME280;69424;48.770;-1.564;2023-04-23T11:58:03;100314.17;;;14.75;68.70
80118;BME280;69424;48.770;-1.564;2023-04-23T12:00:31;100319.50;;;14.88;68.28
80118;BME280;69424;48.770;-1.564;2023-04-23T12:03:01;100326.88;;;15.06;66.91
80118;BME280;69424;48.770;-1.564;2023-04-23T12:08:11;100340.23;;;15.49;63.93
80118;BME280;69424;48.770;-1.564;2023-04-23T12:10:54;100340.79;;;15.49;63.48
80118;BME280;69424;48.770;-1.564;2023-04-23T12:13:27;100347.30;;;15.42;63.24
80118;BME280;69424;48.770;-1.564;2023-04-23T12:16:02;100349.45;;;15.31;64.03
80118;BME280;69424;48.770;-1.564;2023-04-23T12:18:33;100354.91;;;15.23;64.26
80118;BME280;69424;48.770;-1.564;2023-04-23T12:21:09;100360.69;;;15.31;64.30
80118;BME280;69424;48.770;-1.564;2023-04-23T12:23:39;100362.73;;;15.37;62.90
80118;BME280;69424;48.770;-1.564;2023-04-23T12:26:12;100374.26;;;15.28;63.13
80118;BME280;69424;48.770;-1.564;2023-04-23T12:29:00;100371.25;;;15.16;63.28
80118;BME280;69424;48.770;-1.564;2023-04-23T12:31:28;100377.85;;;15.04;64.11
80118;BME280;69424;48.770;-1.564;2023-04-23T12:33:57;100388.37;;;15.03;63.94
80118;BME280;69424;48.770;-1.564;2023-04-23T12:36:29;100386.26;;;15.01;63.51
80118;BME280;69424;48.770;-1.564;2023-04-23T12:39:24;100384.31;;;15.00;63.26
80118;BME280;69424;48.770;-1.564;2023-04-23T12:42:04;100390.96;;;14.95;63.30
80118;BME280;69424;48.770;-1.564;2023-04-23T12:44:33;100388.41;;;14.87;63.60
80118;BME280;69424;48.770;-1.564;2023-04-23T12:47:07;100394.23;;;14.92;64.81
80118;BME280;69424;48.770;-1.564;2023-04-23T12:49:38;100396.44;;;14.99;62.93
80118;BME280;69424;48.770;-1.564;2023-04-23T12:52:07;100392.30;;;14.90;62.45
80118;BME280;69424;48.770;-1.564;2023-04-23T12:54:39;100393.20;;;14.89;63.46
80118;BME280;69424;48.770;-1.564;2023-04-23T12:57:11;100399.27;;;14.87;62.76
80118;BME280;69424;48.770;-1.564;2023-04-23T12:59:39;100393.48;;;14.81;61.84
80118;BME280;69424;48.770;-1.564;2023-04-23T13:02:08;100397.38;;;14.83;63.07
80118;BME280;69424;48.770;-1.564;2023-04-23T13:04:36;100400.30;;;15.03;63.65